Time;durP1;ratioP1;P1;durP2;ratioP2;P2;SDS_P1;SDS_P2;PMS_P1;PMS_P2;Temp;Humidity;BMP_temperature;BMP_pressure;BME280_temperature;BME280_humidity;BME280_pressure;Samples;Min_cycle;Max_cycle;Signal;HPM_P1;HPM_P2
2021/05/27 00:00:11;;;;;;;5.93;2.55;;;;;;;16.03;67.30;100347.28;4995155;28;20128;-76
2021/05/27 00:02:37;;;;;;;7.47;2.80;;;;;;;16.05;67.46;100358.91;4994838;28;20093;-76
2021/05/27 00:05:04;;;;;;;5.93;2.38;;;;;;;16.04;67.41;100360.13;4996209;28;20038;-76
2021/05/27 00:07:30;;;;;;;7.93;2.45;;;;;;;16.04;67.63;100357.31;4994854;28;20083;-75
2021/05/27 00:09:56;;;;;;;5.68;2.17;;;;;;;15.99;68.15;100357.69;4994812;28;20120;-77
2021/05/27 00:12:21;;;;;;;6.90;2.67;;;;;;;16.00;68.00;100355.69;4994820;28;20496;-76
2021/05/27 00:14:48;;;;;;;6.43;2.60;;;;;;;16.00;68.09;100348.06;4994574;28;20031;-77
2021/05/27 00:17:16;;;;;;;7.88;2.78;;;;;;;16.08;67.68;100352.50;4994337;28;20063;-76
2021/05/27 00:19:41;;;;;;;7.72;2.90;;;;;;;16.02;68.23;100347.66;4997276;28;20058;-76
2021/05/27 00:22:07;;;;;;;7.63;3.10;;;;;;;15.81;68.38;100331.56;4999587;28;20432;-76
2021/05/27 00:24:33;;;;;;;4.85;2.70;;;;;;;15.73;68.73;100324.31;5000119;28;20551;-76
2021/05/27 00:26:59;;;;;;;3.60;2.45;;;;;;;15.63;69.33;100325.88;5001103;28;20037;-76
2021/05/27 00:29:24;;;;;;;9.35;3.88;;;;;;;15.35;70.17;100326.53;5000703;28;20089;-76
2021/05/27 00:31:50;;;;;;;9.50;3.22;;;;;;;15.34;71.32;100339.75;5001099;28;20027;-76
2021/05/27 00:34:15;;;;;;;6.00;2.75;;;;;;;15.34;71.31;100327.69;5000901;28;20026;-76
2021/05/27 00:36:41;;;;;;;5.15;2.65;;;;;;;15.34;71.75;100336.94;4997924;28;20473;-77
2021/05/27 00:39:07;;;;;;;7.47;3.13;;;;;;;15.26;71.55;100329.66;4994356;28;20049;-76
2021/05/27 00:41:32;;;;;;;6.10;2.80;;;;;;;15.36;70.75;100339.34;4994223;28;20030;-77
2021/05/27 00:43:58;;;;;;;4.32;1.88;;;;;;;15.35;70.81;100343.34;4993896;28;20042;-76
2021/05/27 00:46:23;;;;;;;6.18;2.15;;;;;;;15.36;70.27;100344.94;4993986;28;20089;-76
2021/05/27 00:49:01;;;;;;;4.57;1.90;;;;;;;15.43;69.89;100344.97;4994041;28;20033;-76
2021/05/27 00:51:29;;;;;;;7.07;1.80;;;;;;;15.43;70.09;100339.38;4994077;28;20068;-76
2021/05/27 00:53:58;;;;;;;5.80;2.00;;;;;;;15.36;69.79;100305.69;4993681;28;20065;-76
2021/05/27 00:56:26;;;;;;;5.07;2.17;;;;;;;15.46;70.19;100338.59;4994069;28;20112;-76
2021/05/27 00:58:52;;;;;;;4.15;1.90;;;;;;;15.39;70.17;100338.53;4995006;28;20052;-76
2021/05/27 01:01:18;;;;;;;5.00;2.05;;;;;;;15.41;69.73;100341.78;4993900;28;20026;-76
2021/05/27 01:03:44;;;;;;;2.65;1.40;;;;;;;15.40;69.45;100351.38;4993754;28;20040;-76
2021/05/27 01:06:09;;;;;;;5.00;1.52;;;;;;;15.46;69.06;100361.03;4994406;28;20397;-77
2021/05/27 01:08:36;;;;;;;2.88;1.38;;;;;;;15.33;69.33;100354.13;4996150;28;20499;-76
2021/05/27 01:11:01;;;;;;;4.25;2.00;;;;;;;15.33;69.64;100352.13;4995347;28;20038;-76
2021/05/27 01:13:29;;;;;;;6.88;2.13;;;;;;;15.27;69.70;100347.28;4997794;28;20440;-76
2021/05/27 01:15:55;;;;;;;5.25;2.25;;;;;;;15.20;70.07;100343.25;5000746;28;20042;-76
2021/05/27 01:18:23;;;;;;;7.13;2.97;;;;;;;15.16;70.47;100342.41;5002178;28;20489;-76
2021/05/27 01:20:57;;;;;;;4.18;1.58;;;;;;;15.10;70.59;100338.38;4999779;28;20041;-77
2021/05/27 01:23:26;;;;;;;4.70;1.70;;;;;;;15.09;70.53;100335.97;4998267;28;20038;-76
2021/05/27 01:25:53;;;;;;;3.28;1.38;;;;;;;15.04;70.93;100325.91;5014432;28;20045;-76
2021/05/27 01:28:20;;;;;;;6.68;2.20;;;;;;;15.02;71.00;100335.88;5013976;28;20022;-76
2021/05/27 01:30:47;;;;;;;4.50;1.70;;;;;;;14.96;71.27;100332.66;4998317;28;20033;-77
2021/05/27 01:33:16;;;;;;;7.28;2.13;;;;;;;14.96;71.34;100335.44;4996857;28;20029;-76
2021/05/27 01:35:42;;;;;;;5.00;1.38;;;;;;;14.83;71.54;100318.16;4996653;28;20030;-76
2021/05/27 01:38:18;;;;;;;1.95;1.45;;;;;;;14.88;71.62;100331.00;4996562;28;20417;-76
2021/05/27 01:40:46;;;;;;;3.80;1.80;;;;;;;14.88;71.40;100331.00;4996404;28;20029;-76
2021/05/27 01:43:12;;;;;;;3.30;1.80;;;;;;;14.86;71.09;100311.78;5014332;28;20030;-76
2021/05/27 01:45:38;;;;;;;2.30;1.58;;;;;;;14.89;71.37;100315.78;4996232;28;20030;-76
2021/05/27 01:48:04;;;;;;;4.35;1.65;;;;;;;14.87;71.15;100301.38;4996510;28;20033;-76
2021/05/27 01:50:30;;;;;;;1.83;1.52;;;;;;;14.90;71.28;100309.00;5013961;28;20029;-76
2021/05/27 01:53:01;;;;;;;7.68;2.00;;;;;;;15.01;70.83;100306.28;4996145;28;20036;-77
2021/05/27 01:55:28;;;;;;;4.82;1.95;;;;;;;15.07;69.71;100305.50;4997058;28;20029;-76
2021/05/27 01:57:55;;;;;;;4.82;1.85;;;;;;;15.07;69.75;100308.31;4999269;28;20034;-77
2021/05/27 02:00:25;;;;;;;4.90;2.30;;;;;;;14.99;69.79;100320.69;5021069;28;20032;-76
2021/05/27 02:02:50;;;;;;;7.05;1.58;;;;;;;14.96;70.37;100318.63;5002983;28;20037;-76
2021/05/27 02:05:16;;;;;;;4.15;1.98;;;;;;;14.92;70.55;100321.44;5003452;28;20476;-76
2021/05/27 02:07:45;;;;;;;4.13;1.50;;;;;;;15.00;70.49;100316.69;5003371;28;20439;-76
2021/05/27 02:10:11;;;;;;;7.25;1.88;;;;;;;14.99;70.33;100308.66;5003184;28;20045;-76
2021/05/27 02:12:40;;;;;;;4.38;2.05;;;;;;;14.97;70.07;100311.88;5003556;28;20119;-76
2021/05/27 02:15:07;;;;;;;9.13;1.80;;;;;;;14.98;70.80;100316.28;5003820;28;20037;-76
2021/05/27 02:17:32;;;;;;;3.78;1.88;;;;;;;15.00;70.21;100311.06;5001228;28;20081;-76
2021/05/27 02:19:59;;;;;;;5.18;1.83;;;;;;;14.98;70.11;100302.25;5000769;28;20037;-76
2021/05/27 02:22:24;;;;;;;4.40;1.50;;;;;;;14.91;70.78;100302.19;4997590;28;20142;-76
2021/05/27 02:24:50;;;;;;;4.40;1.80;;;;;;;14.93;70.61;100306.22;4994372;28;20050;-76
2021/05/27 02:27:16;;;;;;;5.35;2.08;;;;;;;14.97;70.02;100306.25;4996103;28;20030;-76
2021/05/27 02:29:42;;;;;;;4.22;1.70;;;;;;;15.05;69.99;100319.13;5001132;28;20053;-76
2021/05/27 02:32:07;;;;;;;5.93;1.83;;;;;;;14.91;69.85;100316.19;5000577;28;20068;-77
2021/05/27 02:34:33;;;;;;;8.18;4.45;;;;;;;14.95;70.05;100325.44;4999408;28;20022;-75
2021/05/27 02:36:59;;;;;;;4.72;2.92;;;;;;;14.98;69.84;100330.28;5000935;28;20121;-77
2021/05/27 02:39:24;;;;;;;7.13;3.00;;;;;;;14.91;70.07;100325.44;5003270;28;20086;-76
2021/05/27 02:41:50;;;;;;;6.10;3.00;;;;;;;14.82;69.82;100321.34;5001494;28;20026;-75
2021/05/27 02:44:16;;;;;;;4.43;2.70;;;;;;;14.73;70.46;100306.88;4998124;28;20114;-76
2021/05/27 02:46:43;;;;;;;6.50;3.50;;;;;;;14.78;70.92;100309.31;4994591;28;20031;-77
2021/05/27 02:49:08;;;;;;;7.68;5.93;;;;;;;14.80;70.48;100301.31;4995871;28;20026;-75
2021/05/27 02:51:34;;;;;;;7.72;6.00;;;;;;;14.78;70.80;100315.72;4993414;28;20451;-76
2021/05/27 02:54:00;;;;;;;6.15;3.75;;;;;;;14.87;70.13;100315.41;4993790;28;20175;-75
2021/05/27 02:56:25;;;;;;;7.80;2.40;;;;;;;14.84;69.60;100310.56;4998612;28;20037;-75
2021/05/27 02:58:51;;;;;;;4.82;2.70;;;;;;;14.80;69.66;100316.13;4999311;28;20370;-75
2021/05/27 03:01:17;;;;;;;5.97;3.15;;;;;;;14.68;70.19;100303.22;4999321;28;20121;-75
2021/05/27 03:03:42;;;;;;;7.35;4.22;;;;;;;14.60;70.65;100301.59;4998107;28;20027;-75
2021/05/27 03:06:08;;;;;;;5.85;5.35;;;;;;;14.61;70.66;100300.38;4997389;28;20488;-75
2021/05/27 03:08:36;;;;;;;6.68;5.32;;;;;;;14.55;70.95;100307.53;4999031;28;20033;-75
2021/05/27 03:11:02;;;;;;;6.97;6.28;;;;;;;14.50;71.15;100305.09;4998934;28;20488;-75
2021/05/27 03:13:28;;;;;;;8.52;3.47;;;;;;;14.64;70.63;100308.00;5000390;28;20449;-76
2021/05/27 03:15:54;;;;;;;4.45;3.53;;;;;;;14.63;70.59;100298.00;5004122;28;20034;-76
2021/05/27 03:18:20;;;;;;;6.63;2.65;;;;;;;14.60;70.55;100309.97;5006229;28;20579;-77
2021/05/27 03:20:45;;;;;;;3.72;2.25;;;;;;;14.57;70.91;100310.75;5004464;28;20034;-77
2021/05/27 03:23:11;;;;;;;4.80;3.28;;;;;;;14.53;70.60;100309.91;5002871;28;20129;-76
2021/05/27 03:25:37;;;;;;;4.15;2.28;;;;;;;14.58;70.79;100326.34;5000872;28;20100;-76
2021/05/27 03:28:02;;;;;;;4.53;2.40;;;;;;;14.68;70.32;100334.03;5017857;28;20022;-76
2021/05/27 03:30:28;;;;;;;6.65;2.20;;;;;;;14.72;70.24;100342.47;5003083;28;20044;-76
2021/05/27 03:32:55;;;;;;;4.18;2.08;;;;;;;14.76;69.94;100339.72;5005025;28;20029;-76
2021/05/27 03:35:20;;;;;;;3.67;1.80;;;;;;;14.76;69.45;100329.31;5004729;28;20059;-76
2021/05/27 03:37:46;;;;;;;9.98;2.05;;;;;;;14.72;70.24;100328.47;5004613;28;20033;-77
2021/05/27 03:40:13;;;;;;;5.07;1.73;;;;;;;14.71;70.08;100317.66;5018046;28;20034;-76
2021/05/27 03:42:42;;;;;;;8.52;2.58;;;;;;;14.71;70.00;100317.66;5016638;28;20024;-76
2021/05/27 03:45:11;;;;;;;3.10;1.65;;;;;;;14.72;69.89;100322.06;5016176;28;20033;-76
2021/05/27 03:47:37;;;;;;;6.63;2.03;;;;;;;14.72;70.35;100322.06;4998505;28;20034;-76
2021/05/27 03:50:08;;;;;;;5.03;2.10;;;;;;;15.01;69.36;100321.06;5016580;28;20040;-76
2021/05/27 03:52:34;;;;;;;7.60;2.72;;;;;;;15.22;68.78;100311.22;5006124;28;20496;-76
2021/05/27 03:55:01;;;;;;;4.60;2.08;;;;;;;15.03;68.69;100293.50;5004983;28;20034;-76
2021/05/27 03:57:26;;;;;;;8.60;2.45;;;;;;;15.13;68.62;100303.97;5002948;28;20121;-76
2021/05/27 04:02:41;;;;;;;7.20;2.47;;;;;;;15.31;68.40;100297.66;5017185;28;20048;-76
2021/05/27 04:07:51;;;;;;;6.45;3.53;;;;;;;15.42;67.72;100304.13;5017236;28;20041;-77
2021/05/27 04:10:16;;;;;;;5.50;3.90;;;;;;;15.95;66.58;100309.97;4998239;28;20026;-78
2021/05/27 04:18:16;;;;;;;8.68;2.80;;;;;;;16.88;62.62;100315.72;4971423;28;20046;-76
2021/05/27 04:20:43;;;;;;;3.22;1.98;;;;;;;16.90;62.87;100326.56;4997333;28;20038;-76
2021/05/27 04:23:11;;;;;;;2.45;2.00;;;;;;;17.66;61.17;100316.75;4997664;28;20400;-77
2021/05/27 04:25:37;;;;;;;3.95;1.60;;;;;;;18.23;59.46;100325.75;4997783;28;20037;-76
2021/05/27 04:28:04;;;;;;;12.32;3.40;;;;;;;18.76;57.66;100327.41;4997464;28;20404;-76
2021/05/27 04:30:30;;;;;;;5.32;2.20;;;;;;;19.26;55.99;100326.94;5015469;28;20106;-77
2021/05/27 04:33:07;;;;;;;3.60;2.00;;;;;;;19.67;54.78;100325.31;4996392;28;20053;-77
2021/05/27 04:35:41;;;;;;;4.40;1.88;;;;;;;19.82;54.65;100329.56;4997593;28;20041;-76
2021/05/27 04:38:16;;;;;;;5.28;1.88;;;;;;;20.05;54.23;100329.66;4997396;28;20064;-76
2021/05/27 04:40:44;;;;;;;6.13;2.60;;;;;;;19.88;54.27;100337.16;4997643;28;20449;-75
2021/05/27 04:43:11;;;;;;;6.63;1.70;;;;;;;19.44;55.83;100328.75;4997509;28;20025;-76
2021/05/27 04:45:37;;;;;;;4.28;1.95;;;;;;;19.78;55.20;100332.44;4997474;28;20468;-76
2021/05/27 04:48:04;;;;;;;3.20;1.75;;;;;;;20.02;54.73;100324.06;5015002;28;20030;-76
2021/05/27 04:50:32;;;;;;;7.20;1.85;;;;;;;20.26;54.01;100320.09;5015217;28;20060;-75
2021/05/27 04:52:58;;;;;;;4.45;1.95;;;;;;;20.59;53.15;100323.25;4997057;28;20029;-77
2021/05/27 04:55:24;;;;;;;3.97;1.73;;;;;;;20.56;53.29;100318.44;4996986;28;20064;-76
2021/05/27 04:57:49;;;;;;;5.70;1.63;;;;;;;20.88;52.68;100306.63;4997057;28;20469;-76
2021/05/27 05:00:20;;;;;;;3.97;1.70;;;;;;;21.24;51.59;100306.78;4996814;28;20376;-77
2021/05/27 05:02:46;;;;;;;5.18;1.50;;;;;;;21.67;50.40;100305.94;4996772;28;20037;-76
2021/05/27 05:05:13;;;;;;;5.40;2.25;;;;;;;21.80;49.70;100308.94;5012948;28;20026;-76
2021/05/27 05:07:40;;;;;;;3.83;1.83;;;;;;;21.41;50.91;100302.03;4980634;28;20058;-76
2021/05/27 05:10:12;;;;;;;6.55;1.95;;;;;;;21.66;50.56;100307.19;4996601;28;20416;-77
2021/05/27 05:12:51;;;;;;;4.15;1.63;;;;;;;22.01;49.25;100302.81;4996876;28;20116;-76
2021/05/27 05:15:19;;;;;;;2.63;1.70;;;;;;;21.78;50.45;100312.19;4996379;28;20029;-76
2021/05/27 05:18:01;;;;;;;4.97;2.42;;;;;;;21.95;49.86;100316.69;4993464;28;20438;-76
2021/05/27 05:20:29;;;;;;;3.10;2.10;;;;;;;22.00;49.70;100311.72;4993299;28;20030;-76
2021/05/27 05:22:55;;;;;;;7.50;1.70;;;;;;;21.79;50.14;100308.16;4994612;28;20038;-76
2021/05/27 05:25:22;;;;;;;4.88;1.60;;;;;;;21.21;51.64;100292.72;4993191;28;20025;-76
2021/05/27 05:27:48;;;;;;;4.53;2.10;;;;;;;20.82;52.88;100291.38;4993449;28;20042;-76
2021/05/27 05:30:15;;;;;;;4.95;2.72;;;;;;;20.53;54.23;100311.63;4993071;28;20053;-75
2021/05/27 05:32:42;;;;;;;5.18;1.75;;;;;;;20.41;54.91;100300.91;4992697;28;20419;-76
2021/05/27 05:35:17;;;;;;;7.35;1.80;;;;;;;19.87;55.99;100300.88;4994250;28;20396;-78
2021/05/27 05:37:43;;;;;;;7.85;1.98;;;;;;;19.44;57.56;100306.19;4994158;28;20034;-76
2021/05/27 05:40:10;;;;;;;2.67;1.50;;;;;;;19.41;57.18;100315.50;4993015;28;20545;-76
2021/05/27 05:42:38;;;;;;;6.85;2.08;;;;;;;19.45;57.34;100319.91;4992618;28;20065;-76
2021/05/27 05:45:08;;;;;;;3.63;1.70;;;;;;;19.72;56.65;100324.88;4992974;28;20036;-76
2021/05/27 05:47:34;;;;;;;3.60;2.00;;;;;;;19.78;56.44;100332.44;4992891;28;20034;-76
2021/05/27 05:50:02;;;;;;;6.35;2.20;;;;;;;19.57;57.17;100329.84;4992777;28;20547;-76
2021/05/27 05:52:27;;;;;;;4.43;1.88;;;;;;;19.60;56.57;100326.19;4992695;28;20121;-75
2021/05/27 05:54:53;;;;;;;6.85;1.65;;;;;;;19.53;56.76;100343.19;4992717;28;20110;-76
2021/05/27 05:57:19;;;;;;;4.20;1.48;;;;;;;19.47;57.10;100350.50;4992758;28;20066;-76
2021/05/27 05:59:45;;;;;;;5.90;2.42;;;;;;;19.44;57.96;100356.97;4992806;28;20030;-76
2021/05/27 06:02:10;;;;;;;4.45;1.80;;;;;;;19.37;57.63;100374.78;4992827;28;20096;-75
2021/05/27 06:04:39;;;;;;;2.53;1.65;;;;;;;19.10;58.32;100360.53;4992630;28;20022;-75
2021/05/27 06:07:04;;;;;;;4.40;1.88;;;;;;;19.10;59.21;100357.72;4992711;28;20041;-75
2021/05/27 06:09:30;;;;;;;6.55;1.85;;;;;;;18.64;59.89;100346.78;4992242;28;20389;-75
2021/05/27 06:11:56;;;;;;;7.93;2.40;;;;;;;18.69;59.99;100355.63;4992745;28;20049;-75
2021/05/27 06:14:22;;;;;;;3.38;1.60;;;;;;;18.62;60.27;100368.97;4992489;28;20425;-75
2021/05/27 06:16:48;;;;;;;5.07;2.15;;;;;;;18.41;60.80;100381.16;4992162;28;20054;-76
2021/05/27 06:19:14;;;;;;;9.98;1.95;;;;;;;18.58;60.67;100377.44;4992703;28;20101;-75
2021/05/27 06:21:40;;;;;;;3.75;2.22;;;;;;;18.44;60.85;100369.88;4992493;28;20096;-76
2021/05/27 06:24:06;;;;;;;4.95;1.88;;;;;;;18.41;61.11;100367.09;4992503;28;20042;-76
2021/05/27 06:26:33;;;;;;;10.10;2.30;;;;;;;18.51;61.01;100343.69;4993681;28;20033;-75
2021/05/27 06:28:59;;;;;;;3.95;2.33;;;;;;;18.37;61.16;100355.81;4992632;28;20358;-76
2021/05/27 06:31:25;;;;;;;4.38;1.98;;;;;;;18.35;61.55;100354.66;4976210;28;20042;-75
2021/05/27 06:33:50;;;;;;;8.82;1.88;;;;;;;18.20;61.58;100346.28;4992203;28;20544;-76
2021/05/27 06:36:16;;;;;;;4.93;1.92;;;;;;;17.99;61.99;100352.03;4992519;28;20037;-76
2021/05/27 06:38:42;;;;;;;4.28;2.03;;;;;;;18.05;62.28;100376.50;4992285;28;20481;-76
2021/05/27 06:41:08;;;;;;;7.70;2.20;;;;;;;18.15;62.21;100380.50;4992338;28;20085;-75
2021/05/27 06:43:34;;;;;;;6.80;2.28;;;;;;;17.96;62.10;100373.34;4994740;28;20061;-76
2021/05/27 06:46:00;;;;;;;8.57;2.35;;;;;;;17.97;62.68;100380.59;4996254;28;20108;-75
2021/05/27 06:48:25;;;;;;;5.03;1.85;;;;;;;17.85;62.73;100372.59;4996046;28;20026;-76
2021/05/27 06:50:51;;;;;;;4.93;1.92;;;;;;;17.79;63.62;100380.66;4996149;28;20038;-76
2021/05/27 06:53:17;;;;;;;7.82;1.98;;;;;;;17.90;63.63;100382.63;4995931;28;20096;-76
2021/05/27 06:55:45;;;;;;;4.22;2.20;;;;;;;17.91;63.39;100375.78;4995770;28;20030;-76
2021/05/27 06:58:11;;;;;;;7.60;2.42;;;;;;;17.78;64.20;100369.78;4995927;28;20041;-76
2021/05/27 07:00:37;;;;;;;4.00;2.90;;;;;;;17.69;64.33;100364.59;4995757;28;20048;-75
2021/05/27 07:03:04;;;;;;;2.67;1.70;;;;;;;17.73;64.53;100359.75;4996732;28;20049;-76
2021/05/27 07:05:29;;;;;;;6.97;2.28;;;;;;;17.48;65.14;100370.28;4995826;28;20535;-76
2021/05/27 07:07:57;;;;;;;6.82;3.28;;;;;;;17.36;65.56;100356.63;4996929;28;20030;-75
2021/05/27 07:10:23;;;;;;;6.65;2.55;;;;;;;17.41;65.39;100353.41;4995929;28;20053;-76
2021/05/27 07:12:55;;;;;;;5.53;2.92;;;;;;;17.06;65.89;100324.16;4995536;28;20484;-76
2021/05/27 07:15:22;;;;;;;8.40;2.50;;;;;;;17.20;65.72;100383.16;4995622;28;20169;-76
2021/05/27 07:17:49;;;;;;;6.45;2.20;;;;;;;17.14;66.61;100378.34;4995209;28;20054;-76
2021/05/27 07:20:16;;;;;;;9.15;2.55;;;;;;;17.18;67.41;100354.66;4995127;28;20041;-76
2021/05/27 07:22:42;;;;;;;6.55;2.97;;;;;;;17.10;68.07;100332.56;4996763;28;20038;-76
2021/05/27 07:25:09;;;;;;;5.82;3.03;;;;;;;16.98;69.29;100353.44;4995643;28;20030;-75
2021/05/27 07:27:35;;;;;;;8.98;3.65;;;;;;;17.03;69.07;100339.00;4995595;28;20038;-76
2021/05/27 07:30:01;;;;;;;12.48;3.42;;;;;;;17.08;68.73;100341.41;4995676;28;20029;-76
2021/05/27 07:32:26;;;;;;;8.57;4.38;;;;;;;17.19;69.65;100389.97;4995551;28;20543;-75
2021/05/27 07:34:52;;;;;;;7.10;3.83;;;;;;;17.34;70.56;100399.22;4995252;28;20022;-75
2021/05/27 07:37:18;;;;;;;18.70;10.75;;;;;;;17.44;69.82;100358.22;4995686;28;20113;-76
2021/05/27 07:39:44;;;;;;;14.77;9.68;;;;;;;17.58;69.11;100383.50;4995273;28;20081;-75
2021/05/27 07:42:12;;;;;;;16.10;9.63;;;;;;;17.82;69.60;100412.81;4995467;28;20493;-75
2021/05/27 07:44:38;;;;;;;14.48;7.78;;;;;;;18.01;69.35;100401.09;4995248;28;20030;-75
2021/05/27 07:47:04;;;;;;;16.08;8.20;;;;;;;18.64;68.34;100383.44;4996392;28;20073;-75
2021/05/27 07:49:29;;;;;;;11.07;6.03;;;;;;;19.60;64.04;100382.63;4995180;28;20481;-76
2021/05/27 07:51:56;;;;;;;13.55;8.27;;;;;;;20.71;60.40;100369.91;4996459;28;20026;-76
2021/05/27 07:54:22;;;;;;;13.88;6.85;;;;;;;21.77;55.89;100374.94;4994189;28;20026;-75
2021/05/27 07:56:48;;;;;;;7.45;5.15;;;;;;;22.67;52.83;100383.94;4995150;28;20080;-76
2021/05/27 07:59:15;;;;;;;8.18;4.38;;;;;;;23.63;50.89;100375.03;4995025;28;20469;-75
2021/05/27 08:01:42;;;;;;;9.20;4.00;;;;;;;24.26;48.76;100376.47;4995887;28;20027;-76
2021/05/27 08:04:08;;;;;;;3.92;2.53;;;;;;;24.38;46.42;100372.09;4995066;28;20056;-76
2021/05/27 08:06:34;;;;;;;5.68;2.05;;;;;;;25.03;44.81;100358.16;4995013;28;20045;-75
2021/05/27 08:09:08;;;;;;;4.50;2.08;;;;;;;25.22;42.93;100352.72;4995845;28;20034;-76
2021/05/27 08:11:39;;;;;;;3.70;1.70;;;;;;;24.92;42.54;100337.03;4996207;28;20035;-76
2021/05/27 08:14:05;;;;;;;1.77;1.20;;;;;;;24.38;43.64;100357.88;4996040;28;20515;-76
2021/05/27 08:16:31;;;;;;;5.47;1.63;;;;;;;24.26;44.58;100345.22;5001021;28;20049;-76
2021/05/27 08:18:57;;;;;;;4.22;2.20;;;;;;;24.35;44.05;100334.00;5015523;28;20025;-76
2021/05/27 08:21:24;;;;;;;4.60;1.65;;;;;;;24.02;44.64;100321.97;4997419;28;20084;-76
2021/05/27 08:23:50;;;;;;;5.55;2.30;;;;;;;23.99;43.54;100323.69;4997572;28;20026;-76
2021/05/27 08:26:15;;;;;;;7.25;2.10;;;;;;;24.07;44.00;100312.09;4996946;28;20040;-76
2021/05/27 08:28:41;;;;;;;9.38;1.90;;;;;;;23.92;44.23;100301.19;4997348;28;20029;-76
2021/05/27 08:31:06;;;;;;;4.10;2.75;;;;;;;23.89;43.56;100290.69;4997366;28;20030;-77
2021/05/27 08:33:32;;;;;;;7.13;2.30;;;;;;;24.64;42.29;100301.78;4997402;28;20034;-75
2021/05/27 08:35:58;;;;;;;6.68;2.17;;;;;;;24.57;42.53;100308.50;4997615;28;20033;-76
2021/05/27 08:38:23;;;;;;;4.53;2.50;;;;;;;24.23;43.42;100317.69;4997423;28;20030;-76
2021/05/27 08:40:49;;;;;;;6.45;2.03;;;;;;;25.13;41.82;100326.97;5015607;28;20105;-75
2021/05/27 08:43:15;;;;;;;2.83;1.85;;;;;;;25.96;39.77;100325.63;4996761;28;20037;-75
2021/05/27 08:45:42;;;;;;;5.22;2.08;;;;;;;25.26;40.31;100339.16;5013661;28;20457;-76
2021/05/27 08:48:18;;;;;;;5.32;2.45;;;;;;;24.55;41.86;100347.97;5014867;28;20069;-78
2021/05/27 08:50:46;;;;;;;3.45;1.90;;;;;;;25.34;41.09;100349.00;5014647;28;20037;-76
2021/05/27 08:53:16;;;;;;;3.25;2.15;;;;;;;25.89;39.70;100321.00;4997292;28;20085;-75
2021/05/27 08:55:43;;;;;;;5.03;2.33;;;;;;;27.36;36.92;100347.25;4997167;28;20030;-76
2021/05/27 08:58:09;;;;;;;4.55;1.90;;;;;;;26.44;37.24;100335.56;5014666;28;20026;-78
2021/05/27 09:00:36;;;;;;;9.80;2.30;;;;;;;25.38;39.36;100363.94;5014596;28;20504;-76
2021/05/27 09:03:04;;;;;;;5.50;2.30;;;;;;;24.55;41.91;100357.34;5014640;28;20026;-76
2021/05/27 09:05:32;;;;;;;4.13;2.05;;;;;;;24.18;42.14;100367.38;5014363;28;20044;-75
2021/05/27 09:08:06;;;;;;;5.45;2.08;;;;;;;24.64;41.25;100364.38;4997032;28;20384;-76
2021/05/27 09:10:48;;;;;;;8.52;2.58;;;;;;;25.05;40.36;100384.16;4996752;28;20045;-75
2021/05/27 09:13:20;;;;;;;5.38;2.30;;;;;;;25.74;38.61;100385.47;5014277;28;20026;-77
2021/05/27 09:15:51;;;;;;;6.25;2.03;;;;;;;25.01;40.07;100382.66;5014555;28;20033;-76
2021/05/27 09:18:32;;;;;;;4.35;1.90;;;;;;;24.30;41.87;100388.56;4973868;28;20038;-76
2021/05/27 09:20:58;;;;;;;5.18;2.00;;;;;;;23.66;43.42;100393.25;4975741;28;20367;-76
2021/05/27 09:23:24;;;;;;;4.22;1.83;;;;;;;23.30;44.17;100388.50;4973720;28;20031;-76
2021/05/27 09:25:58;;;;;;;3.58;2.08;;;;;;;23.34;44.47;100386.38;4973446;28;20035;-76
2021/05/27 09:28:27;;;;;;;4.53;1.95;;;;;;;23.09;45.02;100391.88;4973535;28;20042;-76
2021/05/27 09:31:03;;;;;;;5.10;2.25;;;;;;;23.11;45.11;100389.38;4974240;28;20116;-76
2021/05/27 09:33:35;;;;;;;5.72;2.10;;;;;;;22.70;45.86;100402.91;4970719;28;20031;-75
2021/05/27 09:36:06;;;;;;;6.55;2.17;;;;;;;22.28;47.61;100407.50;4975047;28;20030;-75
2021/05/27 09:38:34;;;;;;;4.82;1.88;;;;;;;21.97;50.41;100392.75;4973514;28;20022;-76
2021/05/27 09:41:17;;;;;;;5.47;2.20;;;;;;;22.29;50.49;100397.75;4973584;28;20189;-76
2021/05/27 09:43:50;;;;;;;3.40;1.92;;;;;;;22.38;50.14;100395.13;4974872;28;20528;-75
2021/05/27 09:46:16;;;;;;;3.85;2.15;;;;;;;22.51;50.38;100400.91;4974398;28;20039;-75
2021/05/27 09:48:44;;;;;;;3.78;2.03;;;;;;;22.65;49.76;100396.97;4973380;28;20355;-75
2021/05/27 09:51:09;;;;;;;5.47;2.35;;;;;;;22.47;49.52;100395.31;4973518;28;20094;-75
2021/05/27 09:53:35;;;;;;;5.78;2.50;;;;;;;22.28;50.28;100399.00;4973312;28;20425;-75
2021/05/27 09:56:03;;;;;;;6.30;2.15;;;;;;;22.37;50.03;100399.22;4973417;28;20097;-75
2021/05/27 09:58:30;;;;;;;4.88;1.83;;;;;;;22.02;50.23;100392.22;4973241;28;20041;-75
2021/05/27 10:00:56;;;;;;;5.38;1.92;;;;;;;22.33;49.83;100395.66;4974736;28;20033;-76
2021/05/27 10:03:39;;;;;;;5.43;2.42;;;;;;;22.69;48.46;100391.97;4973380;28;20101;-76
2021/05/27 10:06:06;;;;;;;;;;;;;;;23.08;46.84;100398.81;4973715;28;20540;-76
2021/05/27 10:08:53;;;;;;;5.10;1.77;;;;;;;23.48;46.28;100396.53;4974235;28;19910;-75
2021/05/27 10:11:23;;;;;;;4.45;1.75;;;;;;;24.65;42.89;100391.56;4973358;28;20027;-75
2021/05/27 10:13:49;;;;;;;6.00;1.88;;;;;;;25.07;43.21;100389.41;4973988;28;20041;-76
2021/05/27 10:16:17;;;;;;;1.92;1.40;;;;;;;25.11;41.06;100381.53;4980278;28;20053;-77
2021/05/27 10:18:44;;;;;;;4.05;1.85;;;;;;;25.57;40.14;100374.25;4979140;28;20057;-76
2021/05/27 10:21:11;;;;;;;6.40;2.30;;;;;;;26.45;38.27;100382.81;4995854;28;20063;-75
2021/05/27 10:23:38;;;;;;;5.35;2.08;;;;;;;25.95;39.51;100384.69;5013359;28;20113;-75
2021/05/27 10:26:04;;;;;;;3.67;1.80;;;;;;;25.70;39.93;100379.09;4996155;28;20057;-76
2021/05/27 10:28:30;;;;;;;4.75;2.17;;;;;;;25.77;39.92;100368.25;4995965;28;20026;-77
2021/05/27 10:30:57;;;;;;;4.47;2.10;;;;;;;25.55;40.70;100373.09;4995698;28;20088;-76
2021/05/27 10:33:25;;;;;;;5.50;2.00;;;;;;;26.09;39.02;100367.03;4995703;28;20029;-76
2021/05/27 10:35:53;;;;;;;7.05;2.22;;;;;;;26.62;38.47;100372.72;4995542;28;20034;-76
2021/05/27 10:38:47;;;;;;;4.40;1.75;;;;;;;26.21;39.15;100368.25;4995707;28;20041;-76
2021/05/27 10:41:42;;;;;;;6.85;2.42;;;;;;;25.00;41.94;100361.16;4995622;28;20042;-76
2021/05/27 10:44:12;;;;;;;7.65;1.83;;;;;;;25.25;41.80;100355.44;4995422;28;20089;-76
2021/05/27 10:46:55;;;;;;;7.78;2.67;;;;;;;25.10;42.43;100357.19;5012291;28;20551;-76
2021/05/27 10:49:46;;;;;;;6.43;2.35;;;;;;;24.81;42.60;100354.44;4995678;28;20160;-76
2021/05/27 10:52:30;;;;;;;3.72;1.77;;;;;;;24.44;43.18;100311.34;4995514;28;20030;-76
2021/05/27 10:54:56;;;;;;;5.47;2.30;;;;;;;24.65;43.01;100344.00;4995072;28;20033;-76
2021/05/27 10:57:40;;;;;;;4.80;2.17;;;;;;;24.71;43.14;100333.63;4995620;28;20442;-77
2021/05/27 11:00:31;;;;;;;5.03;1.75;;;;;;;24.08;43.73;100330.75;4995451;28;20034;-76
2021/05/27 11:03:35;;;;;;;5.75;2.72;;;;;;;23.99;44.79;100326.53;4989500;28;20096;-76
2021/05/27 11:06:37;;;;;;;5.22;2.33;;;;;;;23.45;46.04;100324.41;4995182;28;20026;-76
2021/05/27 11:09:23;;;;;;;5.80;2.25;;;;;;;23.07;47.40;100317.75;4952283;28;20035;-75
2021/05/27 11:11:50;;;;;;;7.22;2.22;;;;;;;23.44;46.04;100291.59;4991579;28;20030;-76
2021/05/27 11:14:22;;;;;;;7.22;2.60;;;;;;;23.88;45.65;100306.16;4995284;28;20468;-76
2021/05/27 11:25:15;;;;;;;5.03;1.80;;;;;;;24.77;44.41;100291.19;5013067;28;20503;-76
2021/05/27 11:28:17;;;;;;;4.90;1.65;;;;;;;24.93;44.29;100288.19;4995304;28;20053;-77
2021/05/27 11:30:45;;;;;;;5.55;1.77;;;;;;;24.99;44.22;100292.06;4997433;28;20041;-78
2021/05/27 11:33:15;;;;;;;8.55;2.38;;;;;;;25.08;44.00;100272.22;5015947;28;20026;-76
2021/05/27 11:35:54;;;;;;;4.50;1.98;;;;;;;24.90;43.82;100277.72;4998726;28;20389;-76
2021/05/27 11:38:36;;;;;;;5.10;1.73;;;;;;;24.58;44.91;100266.63;4998378;28;20041;-76
2021/05/27 11:41:10;;;;;;;4.22;1.63;;;;;;;24.22;46.02;100265.72;4998567;28;20484;-77
2021/05/27 11:43:38;;;;;;;4.93;1.55;;;;;;;24.43;45.01;100227.28;4998429;28;20060;-76
2021/05/27 11:46:29;;;;;;;3.55;1.42;;;;;;;24.54;44.95;100261.84;4998241;28;20817;-76
2021/05/27 11:48:57;;;;;;;2.58;1.48;;;;;;;25.41;43.44;100271.88;4998095;28;20072;-76